createdAt,value
2019-04-28T00:00:48.451Z,15.74
2019-04-28T00:03:20.785Z,15.76
2019-04-28T00:05:51.684Z,15.69
2019-04-28T00:08:22.275Z,15.66
2019-04-28T00:10:53.393Z,15.58
2019-04-28T00:13:24.285Z,15.58
2019-04-28T00:15:55.003Z,15.55
2019-04-28T00:18:25.789Z,15.57
2019-04-28T00:21:07.347Z,15.59
2019-04-28T00:23:51.708Z,15.49
2019-04-28T00:26:23.871Z,15.48
2019-04-28T00:28:54.578Z,15.48
2019-04-28T00:31:25.317Z,15.48
2019-04-28T00:33:55.941Z,15.48
2019-04-28T00:36:26.596Z,15.45
2019-04-28T00:38:57.316Z,15.42
2019-04-28T00:41:28.072Z,15.42
2019-04-28T00:43:58.806Z,15.40
2019-04-28T00:46:31.140Z,15.39
2019-04-28T00:49:02.218Z,15.36
2019-04-28T00:51:32.956Z,15.30
2019-04-28T00:54:03.576Z,15.31
2019-04-28T00:56:34.292Z,15.33
2019-04-28T00:59:04.896Z,15.32
2019-04-28T01:01:40.734Z,15.30
2019-04-28T01:04:12.350Z,15.30
2019-04-28T01:06:43.134Z,15.36
2019-04-28T01:09:13.895Z,15.43
2019-04-28T01:11:44.651Z,15.53
2019-04-28T01:14:15.382Z,15.60
2019-04-28T01:16:53.779Z,15.63
2019-04-28T01:19:30.136Z,15.59
2019-04-28T01:22:13.663Z,15.59
2019-04-28T01:24:44.352Z,15.39
2019-04-28T01:27:20.379Z,14.98
2019-04-28T01:29:52.877Z,14.74
2019-04-28T01:32:40.518Z,14.45
2019-04-28T01:35:11.322Z,14.21
2019-04-28T01:37:41.936Z,14.22
2019-04-28T01:40:12.779Z,14.12
2019-04-28T01:42:43.450Z,14.08
2019-04-28T01:45:14.648Z,14.12
2019-04-28T01:47:45.320Z,14.17
2019-04-28T01:50:16.161Z,14.34
2019-04-28T01:52:46.890Z,14.45
2019-04-28T01:55:17.594Z,14.55
2019-04-28T01:57:49.800Z,14.75
2019-04-28T02:00:25.265Z,14.73
2019-04-28T02:02:55.063Z,14.77
2019-04-28T02:05:25.742Z,14.92
2019-04-28T02:07:56.412Z,15.11
2019-04-28T02:10:27.033Z,15.23
2019-04-28T02:12:57.744Z,15.24
2019-04-28T02:15:30.198Z,15.24
2019-04-28T02:18:01.078Z,15.46
2019-04-28T02:20:31.762Z,15.48
2019-04-28T02:23:04.008Z,15.48
2019-04-28T02:25:34.807Z,15.47
2019-04-28T02:28:05.418Z,15.51
2019-04-28T02:30:45.372Z,15.45
2019-04-28T02:33:11.141Z,15.42
2019-04-28T02:35:42.339Z,15.39
2019-04-28T02:38:13.126Z,15.40
2019-04-28T02:40:43.905Z,15.33
2019-04-28T02:43:14.664Z,15.31
2019-04-28T02:45:46.236Z,15.27
2019-04-28T02:48:21.054Z,15.21
2019-04-28T02:50:52.807Z,15.15
2019-04-28T02:53:25.020Z,15.10
2019-04-28T02:55:55.679Z,15.08
2019-04-28T02:58:26.281Z,15.08
2019-04-28T03:01:06.209Z,15.03
2019-04-28T03:03:30.833Z,15.01
2019-04-28T03:06:01.861Z,14.98
2019-04-28T03:08:32.505Z,14.98
2019-04-28T03:11:03.096Z,14.98
2019-04-28T03:13:33.866Z,14.98
2019-04-28T03:16:04.754Z,14.99
2019-04-28T03:18:35.350Z,15.01
2019-04-28T03:21:06.091Z,15.00
2019-04-28T03:23:36.654Z,14.92
2019-04-28T03:26:17.738Z,14.86
2019-04-28T03:28:51.376Z,14.85
2019-04-28T03:32:04.070Z,14.79
2019-04-28T03:34:12.912Z,14.77
2019-04-28T03:36:44.177Z,14.79
2019-04-28T03:39:14.688Z,14.85
2019-04-28T03:41:45.412Z,14.92
2019-04-28T03:44:16.867Z,14.94
2019-04-28T03:46:51.220Z,15.13
2019-04-28T03:49:32.156Z,15.19
2019-04-28T03:52:06.707Z,15.44
2019-04-28T03:54:37.404Z,15.34
2019-04-28T03:57:11.123Z,15.29
2019-04-28T03:59:43.560Z,15.30
2019-04-28T04:02:13.698Z,15.28
2019-04-28T04:04:46.173Z,15.60
2019-04-28T04:07:17.222Z,15.71
2019-04-28T04:10:01.567Z,15.73
2019-04-28T04:12:46.226Z,15.91
2019-04-28T04:15:25.460Z,15.97
2019-04-28T04:18:06.908Z,15.98
2019-04-28T04:20:37.627Z,16.46
2019-04-28T04:23:11.076Z,16.38
2019-04-28T04:25:41.642Z,16.57
2019-04-28T04:28:12.566Z,16.47
2019-04-28T04:30:43.365Z,16.80
2019-04-28T04:33:14.063Z,16.88
2019-04-28T04:35:44.580Z,16.74
2019-04-28T04:38:15.339Z,16.65
2019-04-28T04:40:46.057Z,16.27
2019-04-28T04:43:16.739Z,16.69
2019-04-28T04:45:50.125Z,16.63
2019-04-28T04:48:21.569Z,16.85
2019-04-28T04:50:52.522Z,16.79
2019-04-28T04:53:23.473Z,16.65
2019-04-28T04:55:54.367Z,16.48
2019-04-28T04:58:24.984Z,16.74
2019-04-28T05:01:04.149Z,17.10
2019-04-28T05:03:39.775Z,16.73
2019-04-28T05:06:29.974Z,16.41
2019-04-28T05:09:00.588Z,16.41
2019-04-28T05:11:32.810Z,16.35
2019-04-28T05:14:07.551Z,16.51
2019-04-28T05:16:39.844Z,16.87
2019-04-28T05:19:10.773Z,17.18
2019-04-28T05:21:41.426Z,16.85
2019-04-28T05:24:25.939Z,16.66
2019-04-28T05:26:56.542Z,16.83
2019-04-28T05:29:28.128Z,16.59
2019-04-28T05:32:02.285Z,16.38
2019-04-28T05:34:31.189Z,16.15
2019-04-28T05:37:01.887Z,16.23
2019-04-28T05:39:32.437Z,16.09
2019-04-28T05:42:03.008Z,16.07
2019-04-28T05:44:33.812Z,15.77
2019-04-28T05:47:04.399Z,15.67
2019-04-28T05:49:36.687Z,15.53
2019-04-28T05:52:25.421Z,15.47
2019-04-28T05:54:57.649Z,15.43
2019-04-28T05:57:35.573Z,15.39
2019-04-28T06:00:11.265Z,15.34
2019-04-28T06:02:55.492Z,15.17
2019-04-28T06:05:20.008Z,15.14
2019-04-28T06:07:52.259Z,15.19
2019-04-28T06:10:23.418Z,15.14
2019-04-28T06:12:54.166Z,15.15
2019-04-28T06:15:26.308Z,15.12
2019-04-28T06:17:56.899Z,15.05
2019-04-28T06:20:27.610Z,15.06
2019-04-28T06:22:58.333Z,15.17
2019-04-28T06:25:29.234Z,15.30
2019-04-28T06:27:59.968Z,15.39
2019-04-28T06:30:30.669Z,15.42
2019-04-28T06:33:08.206Z,15.47
2019-04-28T06:35:34.165Z,15.52
2019-04-28T06:38:04.799Z,15.32
2019-04-28T06:40:35.454Z,15.37
2019-04-28T06:43:06.045Z,15.34
2019-04-28T06:45:36.747Z,15.26
2019-04-28T06:48:07.490Z,15.11
2019-04-28T06:50:38.229Z,15.00
2019-04-28T06:53:09.445Z,15.01
2019-04-28T06:55:40.098Z,14.87
2019-04-28T06:58:10.684Z,14.65
2019-04-28T07:00:41.477Z,14.70
2019-04-28T07:03:22.706Z,14.63
2019-04-28T07:05:44.896Z,14.53
2019-04-28T07:08:15.705Z,14.35
2019-04-28T07:10:46.375Z,14.16
2019-04-28T07:13:17.092Z,14.22
2019-04-28T07:15:47.693Z,14.32
2019-04-28T07:18:18.596Z,14.10
2019-04-28T07:21:00.400Z,14.56
2019-04-28T07:23:32.166Z,14.70
2019-04-28T07:26:02.816Z,15.11
2019-04-28T07:28:33.909Z,15.22
2019-04-28T07:31:04.724Z,15.50
2019-04-28T07:33:36.357Z,16.09
2019-04-28T07:36:07.190Z,16.47
2019-04-28T07:38:37.924Z,16.77
2019-04-28T07:41:08.599Z,16.81
2019-04-28T07:43:39.298Z,17.01
2019-04-28T07:46:10.015Z,17.46
2019-04-28T07:48:40.683Z,17.29
2019-04-28T07:51:11.392Z,17.91
2019-04-28T07:53:46.861Z,17.90
2019-04-28T07:56:19.083Z,17.73
2019-04-28T07:58:49.713Z,17.78
2019-04-28T08:01:25.784Z,18.15
2019-04-28T08:03:57.620Z,18.85
2019-04-28T08:06:28.612Z,19.11
2019-04-28T08:09:02.297Z,19.37
2019-04-28T08:11:33.288Z,19.08
2019-04-28T08:14:04.229Z,18.89
2019-04-28T08:16:36.143Z,18.88
2019-04-28T08:19:06.661Z,19.07
2019-04-28T08:21:37.375Z,19.50
2019-04-28T08:24:07.954Z,19.31
2019-04-28T08:26:38.669Z,19.79
2019-04-28T08:29:09.262Z,19.84
2019-04-28T08:31:47.621Z,20.16
2019-04-28T08:34:21.005Z,20.24
2019-04-28T08:36:51.752Z,20.89
2019-04-28T08:39:25.072Z,20.35
2019-04-28T08:41:54.836Z,19.70
2019-04-28T08:44:25.443Z,20.07
2019-04-28T08:46:57.012Z,20.79
2019-04-28T08:49:35.161Z,20.93
2019-04-28T08:52:05.857Z,21.35
2019-04-28T08:54:36.466Z,20.90
2019-04-28T08:57:10.161Z,21.53
2019-04-28T08:59:40.822Z,21.10
2019-04-28T09:02:11.664Z,21.36
2019-04-28T09:04:42.274Z,21.59
2019-04-28T09:07:13.047Z,21.97
2019-04-28T09:09:43.795Z,21.64
2019-04-28T09:12:14.491Z,21.97
2019-04-28T09:14:45.097Z,22.00
2019-04-28T09:17:15.785Z,22.16
2019-04-28T09:19:46.391Z,22.34
2019-04-28T09:22:18.202Z,22.21
2019-04-28T09:24:48.937Z,22.08
2019-04-28T09:27:19.616Z,21.98
2019-04-28T09:29:50.184Z,22.50
2019-04-28T09:32:20.904Z,21.95
2019-04-28T09:34:56.229Z,22.59
2019-04-28T09:37:28.507Z,22.19
2019-04-28T09:41:14.506Z,21.97
2019-04-28T09:43:05.526Z,21.84
2019-04-28T09:45:37.687Z,21.74
2019-04-28T09:48:08.413Z,21.59
2019-04-28T09:50:39.132Z,21.63
2019-04-28T09:53:09.870Z,21.22
2019-04-28T09:55:40.685Z,21.49
2019-04-28T09:58:13.298Z,21.35
2019-04-28T10:00:44.001Z,21.31
2019-04-28T10:03:14.762Z,21.29
2019-04-28T10:05:46.068Z,21.27
2019-04-28T10:08:16.738Z,21.83
2019-04-28T10:10:47.434Z,21.19
2019-04-28T10:13:17.998Z,21.09
2019-04-28T10:15:48.793Z,21.29
2019-04-28T10:18:19.448Z,21.51
2019-04-28T10:20:50.189Z,21.31
2019-04-28T10:23:21.010Z,21.12
2019-04-28T10:25:51.630Z,21.13
2019-04-28T10:28:22.285Z,21.26
2019-04-28T10:30:52.895Z,21.40
2019-04-28T10:33:23.672Z,21.36
2019-04-28T10:35:54.358Z,21.45
2019-04-28T10:38:25.059Z,21.78
2019-04-28T10:40:57.200Z,21.52
2019-04-28T10:43:27.917Z,21.27
2019-04-28T10:45:58.782Z,21.46
2019-04-28T10:48:29.423Z,21.23
2019-04-28T10:51:01.301Z,21.35
2019-04-28T10:53:32.010Z,21.78
2019-04-28T10:56:02.594Z,21.72
2019-04-28T10:58:33.258Z,21.71
2019-04-28T11:01:03.967Z,22.06
2019-04-28T11:03:34.798Z,22.01
2019-04-28T11:06:05.409Z,22.22
2019-04-28T11:08:43.336Z,22.35
2019-04-28T11:11:15.564Z,22.65
2019-04-28T11:13:46.230Z,22.49
2019-04-28T11:16:18.407Z,22.43
2019-04-28T11:18:48.973Z,22.02
2019-04-28T11:21:19.658Z,22.09
2019-04-28T11:23:51.772Z,22.26
2019-04-28T11:26:26.607Z,22.09
2019-04-28T11:28:57.593Z,22.12
2019-04-28T11:31:28.304Z,22.39
2019-04-28T11:34:06.937Z,22.02
2019-04-28T11:36:37.874Z,21.98
2019-04-28T11:39:10.043Z,21.76
2019-04-28T11:41:40.711Z,22.06
2019-04-28T11:44:11.619Z,21.90
2019-04-28T11:46:42.266Z,21.90
2019-04-28T11:49:13.292Z,22.18
2019-04-28T11:51:43.936Z,22.76
2019-04-28T11:54:14.554Z,22.67
2019-04-28T11:56:45.166Z,23.11
2019-04-28T11:59:16.237Z,23.18
2019-04-28T12:01:47.092Z,23.10
2019-04-28T12:04:19.016Z,23.08
2019-04-28T12:06:50.654Z,23.10
2019-04-28T12:09:22.978Z,22.89
2019-04-28T12:11:55.350Z,22.33
2019-04-28T12:14:30.347Z,22.91
2019-04-28T12:17:02.575Z,22.43
2019-04-28T12:19:44.231Z,22.35
2019-04-28T12:22:15.024Z,22.55
2019-04-28T12:24:45.630Z,22.12
2019-04-28T12:27:16.354Z,22.65
2019-04-28T12:29:47.044Z,22.35
2019-04-28T12:32:17.702Z,22.20
2019-04-28T12:34:48.475Z,22.36
2019-04-28T12:37:19.137Z,22.50
2019-04-28T12:39:51.248Z,22.98
2019-04-28T12:42:21.858Z,22.61
2019-04-28T12:44:52.464Z,23.02
2019-04-28T12:47:23.112Z,22.81
2019-04-28T12:49:55.527Z,22.83
2019-04-28T12:52:26.200Z,22.93
2019-04-28T12:54:56.894Z,23.40
2019-04-28T12:57:27.526Z,23.11
2019-04-28T12:59:59.699Z,22.42
2019-04-28T13:02:31.878Z,21.87
2019-04-28T13:05:06.759Z,21.27
2019-04-28T13:07:38.809Z,21.04
2019-04-28T13:10:10.389Z,20.89
2019-04-28T13:12:41.210Z,20.83
2019-04-28T13:15:11.931Z,20.65
2019-04-28T13:17:44.131Z,20.87
2019-04-28T13:20:14.934Z,21.05
2019-04-28T13:22:45.517Z,21.33
2019-04-28T13:25:16.242Z,21.19
2019-04-28T13:27:47.104Z,21.00
2019-04-28T13:30:19.657Z,20.84
2019-04-28T13:32:50.344Z,20.74
2019-04-28T13:35:20.967Z,20.72
2019-04-28T13:37:51.635Z,20.51
2019-04-28T13:40:26.662Z,20.34
2019-04-28T13:42:57.281Z,20.53
2019-04-28T13:45:29.627Z,20.74
2019-04-28T13:48:00.268Z,20.72
2019-04-28T13:50:32.583Z,20.86
2019-04-28T13:53:03.229Z,21.13
2019-04-28T13:55:38.482Z,21.22
2019-04-28T13:58:10.233Z,21.07
2019-04-28T14:00:57.661Z,21.04
2019-04-28T14:03:29.924Z,20.73
2019-04-28T14:06:05.282Z,21.00
2019-04-28T14:08:36.190Z,21.26
2019-04-28T14:11:06.795Z,21.35
2019-04-28T14:13:37.515Z,21.09
2019-04-28T14:16:08.173Z,21.17
2019-04-28T14:18:38.918Z,21.54
2019-04-28T14:21:09.511Z,21.91
2019-04-28T14:23:40.212Z,21.91
2019-04-28T14:26:11.042Z,21.80
2019-04-28T14:28:41.755Z,21.61
2019-04-28T14:31:12.595Z,21.62
2019-04-28T14:33:43.427Z,21.44
2019-04-28T14:36:17.025Z,21.71
2019-04-28T14:38:47.763Z,21.69
2019-04-28T14:41:18.576Z,21.67
2019-04-28T14:43:49.216Z,21.53
2019-04-28T14:46:19.812Z,21.50
2019-04-28T14:48:50.569Z,21.63
2019-04-28T14:51:21.338Z,21.67
2019-04-28T14:53:51.995Z,21.75
2019-04-28T14:56:22.761Z,21.62
2019-04-28T14:58:53.508Z,21.58
2019-04-28T15:01:37.903Z,21.43
2019-04-28T15:04:20.862Z,21.20
2019-04-28T15:07:09.412Z,21.13
2019-04-28T15:09:59.859Z,20.96
2019-04-28T15:12:30.594Z,21.00
2019-04-28T15:15:01.372Z,21.03
2019-04-28T15:17:32.033Z,20.77
2019-04-28T15:20:02.831Z,20.66
2019-04-28T15:22:33.710Z,20.55
2019-04-28T15:25:05.214Z,20.48
2019-04-28T15:27:35.800Z,20.34
2019-04-28T15:30:08.407Z,20.37
2019-04-28T15:32:41.790Z,20.35
2019-04-28T15:35:13.965Z,20.24
2019-04-28T15:37:44.958Z,20.19
2019-04-28T15:40:16.656Z,20.32
2019-04-28T15:42:47.405Z,20.13
2019-04-28T15:45:18.344Z,20.17
2019-04-28T15:47:48.999Z,20.18
2019-04-28T15:50:19.653Z,20.08
2019-04-28T15:52:50.402Z,19.99
2019-04-28T15:55:22.617Z,19.93
2019-04-28T15:57:53.389Z,19.79
2019-04-28T16:00:24.025Z,19.65
2019-04-28T16:02:55.008Z,19.49
2019-04-28T16:05:25.669Z,19.38
2019-04-28T16:07:56.301Z,19.23
2019-04-28T16:10:27.202Z,19.13
2019-04-28T16:12:57.948Z,19.01
2019-04-28T16:15:28.578Z,18.84
2019-04-28T16:17:59.678Z,18.73
2019-04-28T16:20:30.289Z,18.59
2019-04-28T16:23:01.127Z,18.45
2019-04-28T16:25:31.973Z,18.33
2019-04-28T16:28:02.704Z,18.15
2019-04-28T16:30:33.460Z,18.04
2019-04-28T16:33:04.375Z,17.91
2019-04-28T16:35:36.760Z,17.81
2019-04-28T16:38:07.469Z,17.70
2019-04-28T16:40:46.165Z,17.63
2019-04-28T16:43:27.127Z,17.54
2019-04-28T16:45:57.806Z,17.55
2019-04-28T16:48:29.127Z,17.40
2019-04-28T16:51:01.483Z,17.34
2019-04-28T16:53:32.235Z,17.27
2019-04-28T16:56:08.446Z,17.23
2019-04-28T16:58:57.980Z,17.16
2019-04-28T17:01:36.185Z,17.09
2019-04-28T17:04:06.970Z,17.14
2019-04-28T17:06:37.570Z,17.08
2019-04-28T17:09:08.381Z,17.02
2019-04-28T17:11:39.124Z,17.03
2019-04-28T17:14:09.769Z,17.03
2019-04-28T17:16:40.438Z,17.04
2019-04-28T17:19:12.319Z,16.94
2019-04-28T17:21:44.112Z,16.90
2019-04-28T17:24:14.789Z,17.00
2019-04-28T17:26:46.317Z,16.97
2019-04-28T17:29:19.661Z,16.93
2019-04-28T17:31:50.398Z,16.83
2019-04-28T17:34:21.051Z,16.86
2019-04-28T17:36:51.680Z,16.82
2019-04-28T17:39:24.074Z,16.86
2019-04-28T17:41:54.795Z,16.90
2019-04-28T17:44:28.435Z,16.87
2019-04-28T17:47:02.449Z,16.83
2019-04-28T17:49:37.460Z,16.81
2019-04-28T17:52:09.318Z,16.80
2019-04-28T17:54:40.315Z,16.74
2019-04-28T17:57:11.174Z,16.74
2019-04-28T17:59:47.076Z,16.73
2019-04-28T18:02:23.615Z,16.67
2019-04-28T18:04:59.010Z,16.64
2019-04-28T18:07:31.523Z,16.59
2019-04-28T18:10:02.252Z,16.66
2019-04-28T18:12:32.973Z,16.75
2019-04-28T18:15:06.574Z,16.76
2019-04-28T18:17:41.904Z,16.80
2019-04-28T18:20:12.911Z,16.79
2019-04-28T18:22:43.635Z,16.78
2019-04-28T18:25:15.717Z,16.79
2019-04-28T18:27:47.740Z,16.76
2019-04-28T18:30:20.645Z,16.80
2019-04-28T18:33:01.665Z,16.85
2019-04-28T18:35:33.881Z,16.82
2019-04-28T18:38:08.758Z,16.83
2019-04-28T18:40:41.044Z,16.85
2019-04-28T18:43:19.542Z,16.77
2019-04-28T18:45:50.412Z,16.70
2019-04-28T18:48:22.760Z,16.68
2019-04-28T18:50:53.630Z,16.52
2019-04-28T18:53:24.387Z,16.43
2019-04-28T18:55:54.973Z,16.35
2019-04-28T18:58:25.558Z,16.26
2019-04-28T19:01:03.805Z,16.17
2019-04-28T19:03:34.486Z,16.15
2019-04-28T19:06:06.746Z,16.18
2019-04-28T19:08:48.866Z,16.08
2019-04-28T19:11:15.508Z,16.07
2019-04-28T19:13:50.743Z,16.04
2019-04-28T19:16:32.118Z,16.05
2019-04-28T19:19:07.499Z,16.06
2019-04-28T19:21:38.637Z,16.08
2019-04-28T19:24:09.488Z,16.20
2019-04-28T19:26:40.396Z,16.11
2019-04-28T19:29:11.149Z,16.03
2019-04-28T19:31:43.471Z,16.10
2019-04-28T19:34:14.201Z,16.41
2019-04-28T19:36:44.813Z,16.65
2019-04-28T19:39:15.433Z,16.81
2019-04-28T19:41:46.169Z,16.86
2019-04-28T19:44:16.964Z,16.98
2019-04-28T19:46:47.916Z,16.96
2019-04-28T19:49:18.789Z,16.92
2019-04-28T19:51:49.465Z,16.86
2019-04-28T19:54:21.716Z,16.79
2019-04-28T19:57:00.011Z,16.72
2019-04-28T19:59:38.539Z,16.86
2019-04-28T20:02:09.221Z,16.89
2019-04-28T20:04:39.988Z,16.80
2019-04-28T20:07:10.740Z,16.67
2019-04-28T20:09:41.400Z,16.59
2019-04-28T20:12:12.121Z,16.54
2019-04-28T20:14:42.806Z,16.51
2019-04-28T20:17:13.436Z,16.53
2019-04-28T20:19:44.213Z,16.58
2019-04-28T20:22:14.917Z,16.61
2019-04-28T20:24:47.224Z,16.59
2019-04-28T20:27:17.978Z,16.62
2019-04-28T20:29:48.611Z,16.62
2019-04-28T20:32:19.303Z,16.63
2019-04-28T20:34:50.010Z,16.65
2019-04-28T20:37:22.275Z,16.70
2019-04-28T20:40:06.647Z,16.69
2019-04-28T20:42:54.388Z,16.66
2019-04-28T20:45:27.664Z,16.68
2019-04-28T20:47:58.321Z,16.62
2019-04-28T20:50:29.123Z,16.48
2019-04-28T20:52:59.919Z,16.41
2019-04-28T20:55:32.293Z,16.31
2019-04-28T20:58:02.894Z,16.14
2019-04-28T21:00:33.721Z,16.12
2019-04-28T21:03:04.663Z,16.22
2019-04-28T21:05:35.252Z,16.18
2019-04-28T21:08:05.859Z,16.15
2019-04-28T21:10:38.083Z,16.19
2019-04-28T21:13:09.069Z,16.08
2019-04-28T21:15:39.985Z,16.17
2019-04-28T21:18:10.747Z,16.06
2019-04-28T21:20:41.514Z,16.17
2019-04-28T21:23:12.252Z,16.12
2019-04-28T21:25:42.992Z,16.09
2019-04-28T21:28:13.745Z,16.01
2019-04-28T21:30:44.475Z,16.09
2019-04-28T21:33:15.090Z,16.04
2019-04-28T21:35:46.195Z,16.11
2019-04-28T21:38:16.840Z,16.15
2019-04-28T21:40:47.493Z,16.11
2019-04-28T21:43:22.540Z,16.14
2019-04-28T21:46:00.942Z,16.12
2019-04-28T21:48:33.133Z,16.10
2019-04-28T21:51:03.972Z,16.08
2019-04-28T21:53:34.878Z,16.08
2019-04-28T21:56:05.813Z,16.14
2019-04-28T21:58:36.449Z,16.09
2019-04-28T22:01:08.788Z,16.07
2019-04-28T22:03:39.482Z,16.01
2019-04-28T22:06:11.848Z,15.98
2019-04-28T22:08:42.798Z,16.04
2019-04-28T22:11:13.374Z,16.03
2019-04-28T22:13:44.185Z,15.99
2019-04-28T22:16:14.881Z,15.95
2019-04-28T22:18:45.605Z,16.01
2019-04-28T22:21:16.366Z,16.00
2019-04-28T22:23:48.678Z,16.06
2019-04-28T22:26:20.813Z,16.01
2019-04-28T22:28:51.499Z,16.08
2019-04-28T22:31:22.126Z,16.12
2019-04-28T22:33:52.872Z,16.05
2019-04-28T22:36:23.471Z,16.06
2019-04-28T22:38:54.067Z,15.98
2019-04-28T22:41:24.868Z,15.94
2019-04-28T22:43:56.330Z,15.87
2019-04-28T22:46:27.152Z,15.91
2019-04-28T22:48:59.331Z,15.95
2019-04-28T22:51:30.049Z,15.85
2019-04-28T22:54:03.593Z,15.83
2019-04-28T22:56:35.860Z,15.87
2019-04-28T22:59:08.273Z,15.81
2019-04-28T23:01:40.632Z,15.80
2019-04-28T23:04:15.795Z,15.78
2019-04-28T23:06:46.531Z,15.74
2019-04-28T23:09:18.897Z,15.72
2019-04-28T23:11:49.511Z,15.70
2019-04-28T23:14:20.230Z,15.63
2019-04-28T23:16:51.024Z,15.63
2019-04-28T23:19:23.176Z,15.57
2019-04-28T23:22:14.282Z,15.51
2019-04-28T23:24:44.921Z,15.43
2019-04-28T23:27:15.485Z,15.31
2019-04-28T23:29:46.171Z,15.19
2019-04-28T23:32:16.879Z,15.13
2019-04-28T23:34:47.471Z,14.94
2019-04-28T23:37:18.196Z,14.79
2019-04-28T23:39:48.804Z,14.71
2019-04-28T23:42:25.661Z,14.57
2019-04-28T23:44:56.501Z,14.40
2019-04-28T23:47:27.279Z,14.30
2019-04-28T23:49:57.972Z,14.21
2019-04-28T23:52:30.136Z,14.33
2019-04-28T23:55:02.355Z,14.18
2019-04-28T23:57:33.552Z,14.20
